createdAt,value
2023-03-18T00:01:17.000Z,96677.00
2023-03-18T00:03:44.012Z,96675.00
2023-03-18T00:06:18.534Z,96680.00
2023-03-18T00:08:48.152Z,96684.00
2023-03-18T00:11:18.422Z,96684.00
2023-03-18T00:13:46.604Z,96688.00
2023-03-18T00:16:14.621Z,96692.00
2023-03-18T00:18:42.451Z,96699.00
2023-03-18T00:21:09.952Z,96692.00
2023-03-18T00:23:37.135Z,96691.00
2023-03-18T00:26:04.408Z,96688.00
2023-03-18T00:28:31.666Z,96689.00
2023-03-18T00:31:09.708Z,96702.00
2023-03-18T00:33:43.498Z,96704.00
2023-03-18T00:36:13.664Z,96698.00
2023-03-18T00:38:43.062Z,96698.00
2023-03-18T00:41:15.780Z,96703.00
2023-03-18T00:43:54.667Z,96702.00
2023-03-18T00:46:29.464Z,96710.00
2023-03-18T00:49:00.372Z,96706.00
2023-03-18T00:51:29.822Z,96695.00
2023-03-18T00:54:00.335Z,96698.00
2023-03-18T00:56:30.814Z,96694.00
2023-03-18T00:58:58.384Z,96698.00
2023-03-18T01:01:26.617Z,96689.00
2023-03-18T01:03:54.934Z,96698.00
2023-03-18T01:06:28.788Z,96697.00
2023-03-18T01:08:57.025Z,96707.00
2023-03-18T01:11:25.053Z,96697.00
2023-03-18T01:13:52.933Z,96699.00
2023-03-18T01:18:59.839Z,96701.00
2023-03-18T01:21:26.674Z,96694.00
2023-03-18T01:23:53.492Z,96692.00
2023-03-18T01:26:20.519Z,96686.00
2023-03-18T01:28:47.971Z,96685.00
2023-03-18T01:31:15.460Z,96694.00
2023-03-18T01:33:42.398Z,96686.00
2023-03-18T01:36:10.542Z,96690.00
2023-03-18T01:38:38.369Z,96693.00
2023-03-18T01:41:05.310Z,96685.00
2023-03-18T01:43:36.225Z,96691.00
2023-03-18T01:46:44.914Z,96682.00
2023-03-18T01:49:28.728Z,96690.00
2023-03-18T01:52:07.694Z,96683.00
2023-03-18T01:54:41.012Z,96696.00
2023-03-18T01:57:07.808Z,96697.00
2023-03-18T01:59:40.134Z,96689.00
2023-03-18T02:02:11.320Z,96698.00
2023-03-18T02:04:45.881Z,96701.00
2023-03-18T02:07:29.785Z,96707.00
2023-03-18T02:10:02.499Z,96721.00
2023-03-18T02:12:35.487Z,96706.00
2023-03-18T02:15:05.072Z,96707.00
2023-03-18T02:17:36.279Z,96711.00
2023-03-18T02:20:10.450Z,96720.00
2023-03-18T02:22:44.784Z,96708.00
2023-03-18T02:25:58.447Z,96718.00
2023-03-18T02:28:29.033Z,96718.00
2023-03-18T02:30:59.905Z,96725.00
2023-03-18T02:33:34.543Z,96720.00
2023-03-18T02:36:10.296Z,96726.00
2023-03-18T02:38:45.333Z,96717.00
2023-03-18T02:41:28.883Z,96712.00
2023-03-18T02:43:56.016Z,96718.00
2023-03-18T02:46:46.921Z,96721.00
2023-03-18T02:49:14.715Z,96733.00
2023-03-18T02:51:41.913Z,96715.00
2023-03-18T02:54:13.754Z,96722.00
2023-03-18T02:56:42.720Z,96729.00
2023-03-18T02:59:10.824Z,96728.00
2023-03-18T03:01:39.613Z,96729.00
2023-03-18T03:04:07.488Z,96728.00
2023-03-18T03:06:35.974Z,96726.00
2023-03-18T03:09:05.249Z,96728.00
2023-03-18T03:11:32.624Z,96727.00
2023-03-18T03:13:59.460Z,96731.00
2023-03-18T03:16:26.472Z,96728.00
2023-03-18T03:18:53.256Z,96733.00
2023-03-18T03:21:20.893Z,96741.00
2023-03-18T03:23:48.415Z,96739.00
2023-03-18T03:26:16.834Z,96731.00
2023-03-18T03:28:44.212Z,96752.00
2023-03-18T03:31:11.152Z,96754.00
2023-03-18T03:33:43.918Z,96746.00
2023-03-18T03:36:16.870Z,96748.00
2023-03-18T03:38:43.992Z,96760.00
2023-03-18T03:41:12.743Z,96759.00
2023-03-18T03:43:40.498Z,96752.00
2023-03-18T03:46:09.356Z,96752.00
2023-03-18T03:48:38.046Z,96749.00
2023-03-18T03:51:06.337Z,96753.00
2023-03-18T03:53:33.926Z,96768.00
2023-03-18T03:56:00.952Z,96773.00
2023-03-18T03:58:28.984Z,96763.00
2023-03-18T04:00:56.435Z,96755.00
2023-03-18T04:03:23.722Z,96760.00
2023-03-18T04:05:50.470Z,96766.00
2023-03-18T04:08:17.285Z,96772.00
2023-03-18T04:10:44.617Z,96775.00
2023-03-18T04:13:11.530Z,96770.00
2023-03-18T04:15:38.384Z,96770.00
2023-03-18T04:18:07.069Z,96770.00
2023-03-18T04:20:38.725Z,96779.00
2023-03-18T04:23:07.325Z,96773.00
2023-03-18T04:25:35.233Z,96776.00
2023-03-18T04:28:02.844Z,96786.00
2023-03-18T04:30:30.788Z,96775.00
2023-03-18T04:32:59.628Z,96788.00
2023-03-18T04:35:28.109Z,96785.00
2023-03-18T04:37:54.953Z,96787.00
2023-03-18T04:40:22.013Z,96782.00
2023-03-18T04:42:49.248Z,96779.00
2023-03-18T04:45:16.828Z,96788.00
2023-03-18T04:47:45.255Z,96782.00
2023-03-18T04:50:13.929Z,96791.00
2023-03-18T04:52:42.704Z,96792.00
2023-03-18T04:55:10.763Z,96791.00
2023-03-18T04:57:38.770Z,96791.00
2023-03-18T05:00:14.762Z,96789.00
2023-03-18T05:02:41.839Z,96789.00
2023-03-18T05:05:09.666Z,96794.00
2023-03-18T05:07:37.069Z,96810.00
2023-03-18T05:10:08.547Z,96793.00
2023-03-18T05:12:36.663Z,96806.00
2023-03-18T05:15:05.931Z,96799.00
2023-03-18T05:17:32.812Z,96794.00
2023-03-18T05:19:59.747Z,96809.00
2023-03-18T05:22:26.577Z,96797.00
2023-03-18T05:24:53.497Z,96796.00
2023-03-18T05:27:20.822Z,96787.00
2023-03-18T05:29:48.223Z,96805.00
2023-03-18T05:32:15.256Z,96791.00
2023-03-18T05:34:42.880Z,96785.00
2023-03-18T05:37:13.145Z,96806.00
2023-03-18T05:39:40.291Z,96800.00
2023-03-18T05:42:08.289Z,96812.00
2023-03-18T05:44:35.337Z,96803.00
2023-03-18T05:47:02.851Z,96783.00
2023-03-18T05:49:30.029Z,96805.00
2023-03-18T05:51:57.132Z,96810.00
2023-03-18T05:54:24.122Z,96801.00
2023-03-18T05:56:52.775Z,96788.00
2023-03-18T05:59:22.349Z,96810.00
2023-03-18T06:01:49.510Z,96817.00
2023-03-18T06:04:17.324Z,96800.00
2023-03-18T06:06:44.227Z,96814.00
2023-03-18T06:09:13.583Z,96807.00
2023-03-18T06:11:40.806Z,96807.00
2023-03-18T06:14:08.662Z,96779.00
2023-03-18T06:16:36.321Z,96826.00
2023-03-18T06:19:04.412Z,96827.00
2023-03-18T06:21:33.307Z,96824.00
2023-03-18T06:24:02.275Z,96823.00
2023-03-18T06:26:29.462Z,96834.00
2023-03-18T06:28:58.403Z,96833.00
2023-03-18T06:31:26.082Z,96832.00
2023-03-18T06:33:53.429Z,96835.00
2023-03-18T06:36:21.610Z,96828.00
2023-03-18T06:38:48.641Z,96838.00
2023-03-18T06:41:16.219Z,96814.00
2023-03-18T06:43:43.289Z,96815.00
2023-03-18T06:46:10.604Z,96810.00
2023-03-18T06:48:40.503Z,96835.00
2023-03-18T06:51:08.167Z,96841.00
2023-03-18T06:53:36.630Z,96831.00
2023-03-18T06:56:06.011Z,96835.00
2023-03-18T06:58:32.859Z,96836.00
2023-03-18T07:01:00.289Z,96833.00
2023-03-18T07:03:28.106Z,96833.00
2023-03-18T07:05:56.323Z,96837.00
2023-03-18T07:08:23.777Z,96829.00
2023-03-18T07:10:57.511Z,96827.00
2023-03-18T07:13:24.924Z,96834.00
2023-03-18T07:15:51.795Z,96822.00
2023-03-18T07:18:18.658Z,96827.00
2023-03-18T07:20:45.746Z,96834.00
2023-03-18T07:23:13.412Z,96842.00
2023-03-18T07:25:40.455Z,96843.00
2023-03-18T07:28:07.210Z,96824.00
2023-03-18T07:30:34.848Z,96839.00
2023-03-18T07:33:02.414Z,96829.00
2023-03-18T07:35:29.362Z,96843.00
2023-03-18T07:37:56.877Z,96837.00
2023-03-18T07:40:24.441Z,96836.00
2023-03-18T07:42:53.798Z,96845.00
2023-03-18T07:45:21.254Z,96837.00
2023-03-18T07:47:48.260Z,96848.00
2023-03-18T07:50:16.433Z,96841.00
2023-03-18T07:52:43.321Z,96849.00
2023-03-18T07:55:12.014Z,96850.00
2023-03-18T07:57:39.232Z,96860.00
2023-03-18T08:00:08.971Z,96869.00
2023-03-18T08:02:36.369Z,96862.00
2023-03-18T08:05:06.828Z,96871.00
2023-03-18T08:07:34.968Z,96867.00
2023-03-18T08:10:02.576Z,96870.00
2023-03-18T08:12:45.079Z,96861.00
2023-03-18T08:15:18.530Z,96867.00
2023-03-18T08:17:45.356Z,96877.00
2023-03-18T08:20:12.950Z,96872.00
2023-03-18T08:22:39.835Z,96870.00
2023-03-18T08:25:07.384Z,96866.00
2023-03-18T08:27:34.218Z,96861.00
2023-03-18T08:30:03.665Z,96870.00
2023-03-18T08:32:31.599Z,96867.00
2023-03-18T08:34:58.711Z,96874.00
2023-03-18T08:37:26.906Z,96861.00
2023-03-18T08:39:54.567Z,96867.00
2023-03-18T08:42:22.146Z,96873.00
2023-03-18T08:44:51.135Z,96874.00
2023-03-18T08:47:18.228Z,96877.00
2023-03-18T08:49:45.458Z,96863.00
2023-03-18T08:52:12.897Z,96870.00
2023-03-18T08:54:39.880Z,96871.00
2023-03-18T08:57:07.197Z,96875.00
2023-03-18T08:59:34.883Z,96877.00
2023-03-18T09:02:01.810Z,96877.00
2023-03-18T09:04:29.720Z,96876.00
2023-03-18T09:06:56.967Z,96869.00
2023-03-18T09:09:31.012Z,96873.00
2023-03-18T09:12:05.823Z,96877.00
2023-03-18T09:14:33.087Z,96865.00
2023-03-18T09:17:01.255Z,96883.00
2023-03-18T09:19:28.388Z,96872.00
2023-03-18T09:21:55.498Z,96876.00
2023-03-18T09:24:22.626Z,96875.00
2023-03-18T09:26:55.553Z,96863.00
2023-03-18T09:29:27.558Z,96877.00
2023-03-18T09:32:01.227Z,96878.00
2023-03-18T09:34:29.007Z,96871.00
2023-03-18T09:37:02.806Z,96872.00
2023-03-18T09:39:33.784Z,96872.00
2023-03-18T09:42:31.405Z,96869.00
2023-03-18T09:45:23.160Z,96869.00
2023-03-18T09:48:30.649Z,96876.00
2023-03-18T09:51:09.636Z,96873.00
2023-03-18T09:53:50.703Z,96879.00
2023-03-18T09:56:25.902Z,96868.00
2023-03-18T09:59:25.880Z,96870.00
2023-03-18T10:01:55.949Z,96873.00
2023-03-18T10:04:29.033Z,96863.00
2023-03-18T10:07:08.781Z,96878.00
2023-03-18T10:09:56.175Z,96874.00
2023-03-18T10:12:40.528Z,96873.00
2023-03-18T10:15:32.664Z,96876.00
2023-03-18T10:18:13.155Z,96878.00
2023-03-18T10:21:20.423Z,96871.00
2023-03-18T10:24:27.470Z,96866.00
2023-03-18T10:27:38.712Z,96867.00
2023-03-18T10:30:22.530Z,96864.00
2023-03-18T10:33:03.985Z,96851.00
2023-03-18T10:35:52.862Z,96870.00
2023-03-18T10:38:32.016Z,96871.00
2023-03-18T10:40:59.185Z,96872.00
2023-03-18T10:43:32.069Z,96873.00
2023-03-18T10:46:07.761Z,96865.00
2023-03-18T10:48:44.188Z,96880.00
2023-03-18T10:51:31.560Z,96878.00
2023-03-18T10:54:15.519Z,96871.00
2023-03-18T10:56:43.020Z,96871.00
2023-03-18T10:59:19.049Z,96870.00
2023-03-18T11:01:49.891Z,96881.00
2023-03-18T11:04:21.583Z,96864.00
2023-03-18T11:07:06.021Z,96882.00
2023-03-18T11:09:39.438Z,96874.00
2023-03-18T11:12:25.931Z,96867.00
2023-03-18T11:14:53.887Z,96876.00
2023-03-18T11:17:35.788Z,96874.00
2023-03-18T11:20:33.644Z,96869.00
2023-03-18T11:23:13.580Z,96864.00
2023-03-18T11:25:40.615Z,96877.00
2023-03-18T11:28:20.950Z,96874.00
2023-03-18T11:30:56.415Z,96870.00
2023-03-18T11:33:33.529Z,96869.00
2023-03-18T11:36:06.993Z,96858.00
2023-03-18T11:38:37.861Z,96847.00
2023-03-18T11:41:09.167Z,96861.00
2023-03-18T11:43:38.190Z,96854.00
2023-03-18T11:46:08.945Z,96847.00
2023-03-18T11:48:42.776Z,96828.00
2023-03-18T11:51:42.834Z,96843.00
2023-03-18T11:54:23.752Z,96836.00
2023-03-18T11:57:03.217Z,96829.00
2023-03-18T11:59:56.565Z,96811.00
2023-03-18T12:03:01.736Z,96838.00
2023-03-18T12:06:05.806Z,96832.00
2023-03-18T12:09:00.972Z,96835.00
2023-03-18T12:11:48.821Z,96833.00
2023-03-18T12:14:21.956Z,96825.00
2023-03-18T12:17:14.856Z,96827.00
2023-03-18T12:20:19.695Z,96828.00
2023-03-18T12:23:15.260Z,96825.00
2023-03-18T12:25:54.068Z,96822.00
2023-03-18T12:29:07.195Z,96826.00
2023-03-18T12:31:36.651Z,96828.00
2023-03-18T12:34:04.884Z,96823.00
2023-03-18T12:37:00.266Z,96812.00
2023-03-18T12:39:52.610Z,96810.00
2023-03-18T12:43:04.766Z,96812.00
2023-03-18T12:45:39.773Z,96805.00
2023-03-18T12:48:43.766Z,96801.00
2023-03-18T12:51:21.755Z,96798.00
2023-03-18T12:54:00.898Z,96799.00
2023-03-18T12:56:33.286Z,96794.00
2023-03-18T12:59:24.627Z,96784.00
2023-03-18T13:02:23.650Z,96786.00
2023-03-18T13:04:58.106Z,96796.00
2023-03-18T13:07:40.417Z,96791.00
2023-03-18T13:10:24.755Z,96794.00
2023-03-18T13:12:56.457Z,96786.00
2023-03-18T13:15:35.779Z,96789.00
2023-03-18T13:18:27.873Z,96780.00
2023-03-18T13:20:58.856Z,96765.00
2023-03-18T13:24:13.163Z,96771.00
2023-03-18T13:27:23.452Z,96780.00
2023-03-18T13:30:24.018Z,96770.00
2023-03-18T13:33:34.822Z,96761.00
2023-03-18T13:36:39.374Z,96775.00
2023-03-18T13:39:24.924Z,96769.00
2023-03-18T13:42:21.784Z,96764.00
2023-03-18T13:45:22.342Z,96764.00
2023-03-18T13:47:59.233Z,96758.00
2023-03-18T13:50:42.188Z,96761.00
2023-03-18T13:53:29.352Z,96750.00
2023-03-18T13:55:56.364Z,96765.00
2023-03-18T13:58:36.241Z,96769.00
2023-03-18T14:01:36.121Z,96767.00
2023-03-18T14:04:32.471Z,96763.00
2023-03-18T14:07:17.620Z,96768.00
2023-03-18T14:10:17.027Z,96764.00
2023-03-18T14:12:47.527Z,96757.00
2023-03-18T14:15:15.931Z,96758.00
2023-03-18T14:17:48.425Z,96756.00
2023-03-18T14:20:16.027Z,96758.00
2023-03-18T14:22:45.097Z,96760.00
2023-03-18T14:25:17.802Z,96768.00
2023-03-18T14:27:56.376Z,96768.00
2023-03-18T14:30:33.648Z,96762.00
2023-03-18T14:33:05.451Z,96778.00
2023-03-18T14:36:02.650Z,96779.00
2023-03-18T14:39:07.193Z,96772.00
2023-03-18T14:41:42.506Z,96765.00
2023-03-18T14:44:27.900Z,96770.00
2023-03-18T14:47:00.634Z,96764.00
2023-03-18T14:49:46.028Z,96761.00
2023-03-18T14:52:34.720Z,96754.00
2023-03-18T14:55:07.715Z,96754.00
2023-03-18T14:57:34.620Z,96745.00
2023-03-18T15:00:04.052Z,96745.00
2023-03-18T15:02:38.211Z,96740.00
2023-03-18T15:05:06.852Z,96743.00
2023-03-18T15:07:39.690Z,96735.00
2023-03-18T15:10:24.523Z,96733.00
2023-03-18T15:13:13.493Z,96723.00
2023-03-18T15:15:42.104Z,96744.00
2023-03-18T15:18:17.275Z,96739.00
2023-03-18T15:20:46.772Z,96740.00
2023-03-18T15:23:14.893Z,96726.00
2023-03-18T15:25:44.060Z,96740.00
2023-03-18T15:28:23.783Z,96733.00
2023-03-18T15:30:54.537Z,96745.00
2023-03-18T15:33:29.388Z,96744.00
2023-03-18T15:36:04.865Z,96743.00
2023-03-18T15:38:33.658Z,96736.00
2023-03-18T15:41:10.192Z,96733.00
2023-03-18T15:43:45.176Z,96733.00
2023-03-18T15:46:32.367Z,96744.00
2023-03-18T15:49:02.770Z,96736.00
2023-03-18T15:51:40.426Z,96733.00
2023-03-18T15:54:19.149Z,96728.00
2023-03-18T15:56:49.134Z,96722.00
2023-03-18T15:59:24.485Z,96719.00
2023-03-18T16:01:52.614Z,96729.00
2023-03-18T16:04:21.732Z,96730.00
2023-03-18T16:06:49.168Z,96732.00
2023-03-18T16:09:20.391Z,96734.00
2023-03-18T16:12:08.623Z,96751.00
2023-03-18T16:14:42.753Z,96748.00
2023-03-18T16:17:13.377Z,96757.00
2023-03-18T16:19:40.863Z,96757.00
2023-03-18T16:22:08.674Z,96755.00
2023-03-18T16:24:36.875Z,96752.00
2023-03-18T16:27:06.029Z,96751.00
2023-03-18T16:29:41.608Z,96754.00
2023-03-18T16:32:12.898Z,96755.00
2023-03-18T16:34:39.995Z,96745.00
2023-03-18T16:37:07.388Z,96750.00
2023-03-18T16:39:35.414Z,96755.00
2023-03-18T16:42:05.086Z,96757.00
2023-03-18T16:44:35.753Z,96765.00
2023-03-18T16:47:02.621Z,96769.00
2023-03-18T16:49:31.787Z,96769.00
2023-03-18T16:52:00.523Z,96763.00
2023-03-18T16:54:32.805Z,96769.00
2023-03-18T16:57:02.889Z,96775.00
2023-03-18T16:59:35.478Z,96781.00
2023-03-18T17:02:04.260Z,96780.00
2023-03-18T17:04:34.756Z,96780.00
2023-03-18T17:07:05.050Z,96780.00
2023-03-18T17:09:32.115Z,96785.00
2023-03-18T17:12:04.736Z,96782.00
2023-03-18T17:14:43.363Z,96778.00
2023-03-18T17:17:33.861Z,96781.00
2023-03-18T17:20:00.680Z,96786.00
2023-03-18T17:22:30.794Z,96791.00
2023-03-18T17:24:58.122Z,96787.00
2023-03-18T17:27:31.530Z,96790.00
2023-03-18T17:29:58.346Z,96790.00
2023-03-18T17:32:26.021Z,96803.00
2023-03-18T17:34:54.409Z,96807.00
2023-03-18T17:37:21.701Z,96793.00
2023-03-18T17:39:48.512Z,96800.00
2023-03-18T17:42:33.229Z,96814.00
2023-03-18T17:45:26.104Z,96811.00
2023-03-18T17:47:54.548Z,96808.00
2023-03-18T17:50:21.394Z,96811.00
2023-03-18T17:52:52.043Z,96801.00
2023-03-18T17:55:22.863Z,96815.00
2023-03-18T17:57:50.796Z,96815.00
2023-03-18T18:00:21.513Z,96809.00
2023-03-18T18:02:49.149Z,96812.00
2023-03-18T18:05:19.732Z,96807.00
2023-03-18T18:07:47.604Z,96808.00
2023-03-18T18:10:17.472Z,96797.00
2023-03-18T18:12:48.485Z,96798.00
2023-03-18T18:15:22.963Z,96794.00
2023-03-18T18:17:49.694Z,96801.00
2023-03-18T18:20:18.698Z,96797.00
2023-03-18T18:22:53.771Z,96794.00
2023-03-18T18:25:27.450Z,96792.00
2023-03-18T18:27:54.485Z,96780.00
2023-03-18T18:30:24.017Z,96775.00
2023-03-18T18:32:51.331Z,96791.00
2023-03-18T18:35:22.739Z,96779.00
2023-03-18T18:37:50.204Z,96781.00
2023-03-18T18:40:18.921Z,96789.00
2023-03-18T18:42:45.828Z,96790.00
2023-03-18T18:45:19.174Z,96787.00
2023-03-18T18:47:46.356Z,96786.00
2023-03-18T18:50:19.856Z,96794.00
2023-03-18T18:52:47.246Z,96785.00
2023-03-18T18:55:14.194Z,96793.00
2023-03-18T18:57:42.873Z,96789.00
2023-03-18T19:00:23.876Z,96789.00
2023-03-18T19:02:56.221Z,96788.00
2023-03-18T19:05:23.941Z,96795.00
2023-03-18T19:07:51.491Z,96786.00
2023-03-18T19:10:18.553Z,96793.00
2023-03-18T19:12:45.343Z,96785.00
2023-03-18T19:15:15.456Z,96790.00
2023-03-18T19:17:43.482Z,96798.00
2023-03-18T19:20:29.999Z,96793.00
2023-03-18T19:22:57.549Z,96781.00
2023-03-18T19:25:25.815Z,96792.00
2023-03-18T19:27:54.290Z,96801.00
2023-03-18T19:30:24.253Z,96812.00
2023-03-18T19:32:52.128Z,96795.00
2023-03-18T19:35:19.119Z,96798.00
2023-03-18T19:37:48.073Z,96796.00
2023-03-18T19:40:24.413Z,96795.00
2023-03-18T19:42:51.406Z,96796.00
2023-03-18T19:45:18.513Z,96789.00
2023-03-18T19:47:45.914Z,96784.00
2023-03-18T19:50:19.565Z,96788.00
2023-03-18T19:52:46.829Z,96791.00
2023-03-18T19:55:15.688Z,96794.00
2023-03-18T19:57:46.840Z,96788.00
2023-03-18T20:00:25.703Z,96793.00
2023-03-18T20:02:53.565Z,96800.00
2023-03-18T20:05:23.290Z,96800.00
2023-03-18T20:07:50.478Z,96791.00
2023-03-18T20:10:19.967Z,96797.00
2023-03-18T20:12:49.660Z,96798.00
2023-03-18T20:15:23.131Z,96793.00
2023-03-18T20:17:51.724Z,96792.00
2023-03-18T20:20:27.729Z,96798.00
2023-03-18T20:23:08.061Z,96799.00
2023-03-18T20:25:41.102Z,96800.00
2023-03-18T20:28:13.406Z,96806.00
2023-03-18T20:30:41.321Z,96809.00
2023-03-18T20:33:08.727Z,96804.00
2023-03-18T20:35:44.301Z,96812.00
2023-03-18T20:38:38.797Z,96817.00
2023-03-18T20:41:14.710Z,96805.00
2023-03-18T20:43:41.507Z,96811.00
2023-03-18T20:46:13.440Z,96812.00
2023-03-18T20:48:41.790Z,96821.00
2023-03-18T20:51:27.778Z,96809.00
2023-03-18T20:53:55.124Z,96812.00
2023-03-18T20:56:22.888Z,96807.00
2023-03-18T20:58:50.761Z,96816.00
2023-03-18T21:01:18.445Z,96815.00
2023-03-18T21:03:45.439Z,96804.00
2023-03-18T21:06:15.896Z,96807.00
2023-03-18T21:08:43.123Z,96813.00
2023-03-18T21:11:32.617Z,96809.00
2023-03-18T21:13:59.896Z,96810.00
2023-03-18T21:16:27.708Z,96815.00
2023-03-18T21:18:54.629Z,96814.00
2023-03-18T21:21:31.260Z,96818.00
2023-03-18T21:23:58.228Z,96807.00
2023-03-18T21:26:25.154Z,96820.00
2023-03-18T21:28:52.739Z,96817.00
2023-03-18T21:31:31.066Z,96826.00
2023-03-18T21:33:57.877Z,96821.00
2023-03-18T21:36:24.667Z,96821.00
2023-03-18T21:38:51.641Z,96819.00
2023-03-18T21:41:25.703Z,96820.00
2023-03-18T21:43:53.162Z,96823.00
2023-03-18T21:46:24.467Z,96809.00
2023-03-18T21:48:52.193Z,96808.00
2023-03-18T21:51:38.787Z,96801.00
2023-03-18T21:54:16.711Z,96786.00
2023-03-18T21:56:43.522Z,96798.00
2023-03-18T21:59:10.436Z,96792.00
2023-03-18T22:01:37.501Z,96797.00
2023-03-18T22:04:04.437Z,96792.00
2023-03-18T22:06:31.281Z,96788.00
2023-03-18T22:08:58.052Z,96792.00
2023-03-18T22:11:24.878Z,96802.00
2023-03-18T22:13:51.699Z,96802.00
2023-03-18T22:16:18.902Z,96786.00
2023-03-18T22:18:47.357Z,96805.00
2023-03-18T22:21:26.008Z,96796.00
2023-03-18T22:23:53.741Z,96796.00
2023-03-18T22:26:21.752Z,96806.00
2023-03-18T22:28:50.552Z,96812.00
2023-03-18T22:31:24.944Z,96808.00
2023-03-18T22:33:52.193Z,96811.00
2023-03-18T22:36:21.788Z,96807.00
2023-03-18T22:38:49.052Z,96807.00
2023-03-18T22:41:31.050Z,96803.00
2023-03-18T22:43:59.835Z,96810.00
2023-03-18T22:46:28.233Z,96814.00
2023-03-18T22:48:55.262Z,96811.00
2023-03-18T22:51:29.710Z,96809.00
2023-03-18T22:53:56.703Z,96812.00
2023-03-18T22:56:23.987Z,96810.00
2023-03-18T22:58:51.401Z,96798.00
2023-03-18T23:01:21.473Z,96811.00
2023-03-18T23:03:48.934Z,96812.00
2023-03-18T23:06:19.819Z,96820.00
2023-03-18T23:08:47.031Z,96822.00
2023-03-18T23:11:14.517Z,96819.00
2023-03-18T23:13:44.763Z,96815.00
2023-03-18T23:16:20.414Z,96807.00
2023-03-18T23:18:47.796Z,96817.00
2023-03-18T23:21:23.661Z,96813.00
2023-03-18T23:23:52.300Z,96812.00
2023-03-18T23:26:19.590Z,96816.00
2023-03-18T23:28:46.890Z,96810.00
2023-03-18T23:31:15.390Z,96822.00
2023-03-18T23:33:42.644Z,96812.00
2023-03-18T23:36:10.768Z,96815.00
2023-03-18T23:38:37.985Z,96817.00
2023-03-18T23:41:05.985Z,96813.00
2023-03-18T23:43:32.900Z,96820.00
2023-03-18T23:45:59.897Z,96816.00
2023-03-18T23:48:26.776Z,96816.00
2023-03-18T23:50:53.740Z,96818.00
2023-03-18T23:53:20.782Z,96814.00
2023-03-18T23:55:49.465Z,96821.00
2023-03-18T23:58:16.583Z,96816.00
